createdAt,value
2022-11-24T00:01:05.685Z,8.70
2022-11-24T00:03:54.481Z,11.53
2022-11-24T00:06:40.629Z,12.43
2022-11-24T00:09:26.977Z,9.77
2022-11-24T00:12:14.792Z,9.80
2022-11-24T00:15:01.202Z,13.33
2022-11-24T00:17:47.587Z,9.43
2022-11-24T00:20:33.828Z,16.37
2022-11-24T00:23:20.228Z,10.47
2022-11-24T00:26:07.966Z,9.73
2022-11-24T00:28:56.384Z,16.67
2022-11-24T00:31:43.004Z,11.30
2022-11-24T00:34:29.499Z,10.93
2022-11-24T00:37:15.516Z,11.43
2022-11-24T00:40:01.949Z,9.20
2022-11-24T00:42:48.306Z,6.87
2022-11-24T00:45:36.267Z,9.47
2022-11-24T00:48:22.987Z,10.23
2022-11-24T00:51:10.503Z,7.70
2022-11-24T00:53:57.499Z,8.30
2022-11-24T00:56:43.572Z,8.87
2022-11-24T00:59:30.107Z,5.93
2022-11-24T01:02:17.828Z,9.90
2022-11-24T01:05:04.145Z,6.77
2022-11-24T01:07:50.332Z,7.00
2022-11-24T01:10:36.621Z,6.70
2022-11-24T01:13:22.985Z,8.00
2022-11-24T01:16:14.624Z,8.10
2022-11-24T01:19:03.897Z,7.00
2022-11-24T01:21:50.572Z,5.23
2022-11-24T01:24:36.899Z,6.37
2022-11-24T01:27:23.306Z,5.53
2022-11-24T01:30:10.305Z,5.47
2022-11-24T01:32:56.341Z,6.53
2022-11-24T01:35:43.867Z,5.50
2022-11-24T01:38:30.139Z,8.37
2022-11-24T01:41:17.777Z,5.10
2022-11-24T01:44:18.617Z,6.53
2022-11-24T01:47:06.662Z,6.00
2022-11-24T01:49:54.810Z,7.97
2022-11-24T01:52:44.216Z,6.93
2022-11-24T01:55:32.944Z,5.53
2022-11-24T01:58:20.657Z,8.27
2022-11-24T02:01:06.952Z,7.80
2022-11-24T02:03:53.887Z,4.63
2022-11-24T02:06:41.166Z,6.93
2022-11-24T02:09:32.214Z,4.87
2022-11-24T02:12:18.595Z,6.30
2022-11-24T02:15:05.028Z,6.43
2022-11-24T02:17:51.175Z,6.50
2022-11-24T02:20:38.139Z,10.27
2022-11-24T02:23:25.446Z,8.90
2022-11-24T02:26:15.979Z,5.83
2022-11-24T02:29:04.023Z,9.90
2022-11-24T02:31:52.298Z,7.40
2022-11-24T02:34:38.404Z,8.17
2022-11-24T02:37:24.877Z,13.37
2022-11-24T02:40:11.732Z,9.93
2022-11-24T02:42:59.849Z,8.00
2022-11-24T02:45:47.765Z,9.50
2022-11-24T02:48:34.188Z,11.60
2022-11-24T02:51:20.710Z,10.83
2022-11-24T02:54:07.084Z,9.87
2022-11-24T02:56:53.296Z,6.63
2022-11-24T02:59:39.469Z,10.53
2022-11-24T03:02:27.121Z,10.00
2022-11-24T03:05:13.903Z,6.47
2022-11-24T03:08:00.288Z,6.57
2022-11-24T03:10:46.809Z,8.07
2022-11-24T03:13:32.799Z,7.10
2022-11-24T03:16:19.210Z,7.10
2022-11-24T03:19:06.936Z,9.57
2022-11-24T03:21:53.267Z,8.67
2022-11-24T03:24:39.690Z,7.17
2022-11-24T03:27:25.858Z,8.80
2022-11-24T03:30:12.848Z,7.27
2022-11-24T03:32:58.981Z,9.77
2022-11-24T03:35:46.930Z,10.53
2022-11-24T03:38:33.353Z,8.23
2022-11-24T03:41:19.462Z,9.37
2022-11-24T03:44:05.890Z,10.77
2022-11-24T03:46:53.056Z,7.47
2022-11-24T03:49:39.153Z,10.27
2022-11-24T03:52:27.249Z,7.07
2022-11-24T03:55:13.672Z,10.80
2022-11-24T03:58:00.124Z,9.77
2022-11-24T04:00:46.626Z,9.30
2022-11-24T04:03:32.704Z,8.07
2022-11-24T04:06:19.003Z,9.90
2022-11-24T04:09:07.044Z,9.07
2022-11-24T04:12:13.172Z,8.13
2022-11-24T04:14:59.580Z,13.70
2022-11-24T04:17:45.760Z,9.80
2022-11-24T04:20:32.132Z,8.47
2022-11-24T04:23:18.221Z,11.03
2022-11-24T04:26:06.032Z,7.60
2022-11-24T04:28:52.574Z,12.80
2022-11-24T04:31:38.689Z,8.77
2022-11-24T04:34:25.060Z,10.50
2022-11-24T04:37:11.934Z,22.27
2022-11-24T04:39:57.993Z,13.53
2022-11-24T04:42:52.877Z,6.50
2022-11-24T04:45:38.967Z,5.93
2022-11-24T04:48:25.096Z,5.20
2022-11-24T04:51:11.598Z,5.60
2022-11-24T04:53:57.940Z,7.00
2022-11-24T04:56:44.747Z,5.67
2022-11-24T04:59:32.223Z,6.20
2022-11-24T05:02:18.585Z,11.50
2022-11-24T05:05:04.867Z,8.93
2022-11-24T05:07:51.048Z,5.50
2022-11-24T05:10:39.597Z,9.10
2022-11-24T05:13:26.533Z,5.53
2022-11-24T05:16:14.203Z,9.43
2022-11-24T05:19:00.813Z,9.87
2022-11-24T05:21:46.962Z,9.53
2022-11-24T05:24:33.342Z,10.07
2022-11-24T05:27:19.937Z,9.47
2022-11-24T05:30:07.280Z,8.43
2022-11-24T05:32:55.080Z,6.97
2022-11-24T05:35:41.545Z,8.67
2022-11-24T05:38:27.930Z,6.90
2022-11-24T05:41:14.213Z,8.47
2022-11-24T05:44:00.306Z,9.90
2022-11-24T05:46:46.711Z,7.83
2022-11-24T05:49:34.685Z,9.27
2022-11-24T05:52:21.106Z,7.67
2022-11-24T05:55:07.883Z,9.67
2022-11-24T05:57:58.887Z,8.67
2022-11-24T06:00:45.376Z,7.47
2022-11-24T06:03:31.481Z,5.20
2022-11-24T06:06:19.183Z,7.50
2022-11-24T06:09:06.123Z,11.00
2022-11-24T06:11:52.410Z,7.37
2022-11-24T06:14:38.568Z,8.20
2022-11-24T06:17:25.431Z,6.20
2022-11-24T06:20:12.465Z,8.20
2022-11-24T06:23:00.397Z,6.83
2022-11-24T06:25:51.397Z,4.57
2022-11-24T06:28:37.960Z,10.47
2022-11-24T06:31:23.999Z,11.47
2022-11-24T06:34:11.743Z,9.00
2022-11-24T06:36:58.235Z,8.57
2022-11-24T06:39:45.733Z,7.40
2022-11-24T06:42:32.221Z,12.03
2022-11-24T06:45:18.431Z,19.57
2022-11-24T06:48:05.044Z,9.23
2022-11-24T06:50:51.587Z,6.00
2022-11-24T06:53:38.936Z,10.70
2022-11-24T06:56:26.899Z,5.13
2022-11-24T06:59:16.869Z,5.47
2022-11-24T07:02:02.916Z,4.77
2022-11-24T07:04:49.503Z,4.03
2022-11-24T07:07:35.758Z,2.87
2022-11-24T07:10:22.491Z,3.47
2022-11-24T07:13:10.656Z,4.30
2022-11-24T07:15:56.933Z,4.43
2022-11-24T07:18:43.646Z,5.60
2022-11-24T07:21:30.814Z,5.47
2022-11-24T07:24:17.462Z,4.20
2022-11-24T07:27:03.682Z,5.03
2022-11-24T07:29:51.606Z,5.77
2022-11-24T07:32:38.282Z,3.47
2022-11-24T07:35:24.756Z,4.23
2022-11-24T07:38:11.250Z,5.83
2022-11-24T07:41:00.291Z,4.33
2022-11-24T07:43:47.021Z,5.23
2022-11-24T07:46:34.795Z,3.17
2022-11-24T07:49:21.189Z,3.80
2022-11-24T07:52:08.689Z,3.10
2022-11-24T07:54:55.127Z,4.07
2022-11-24T07:57:41.827Z,3.87
2022-11-24T08:00:28.415Z,4.40
2022-11-24T08:03:16.083Z,3.70
2022-11-24T08:09:08.485Z,3.83
2022-11-24T08:11:54.745Z,7.67
2022-11-24T08:14:41.268Z,5.60
2022-11-24T08:17:29.333Z,6.73
2022-11-24T08:20:16.971Z,4.27
2022-11-24T08:23:03.310Z,7.43
2022-11-24T08:25:54.169Z,4.37
2022-11-24T08:28:43.384Z,5.97
2022-11-24T08:31:33.596Z,3.93
2022-11-24T08:34:20.269Z,5.63
2022-11-24T08:37:08.249Z,4.07
2022-11-24T08:39:54.580Z,5.73
2022-11-24T08:42:40.964Z,3.30
2022-11-24T08:45:30.464Z,4.87
2022-11-24T08:48:17.079Z,3.77
2022-11-24T08:51:07.908Z,3.67
2022-11-24T08:53:57.046Z,3.17
2022-11-24T08:56:43.621Z,5.53
2022-11-24T08:59:30.148Z,6.07
2022-11-24T09:02:16.596Z,2.97
2022-11-24T09:05:03.162Z,8.03
2022-11-24T09:07:49.614Z,3.97
2022-11-24T09:10:37.623Z,5.83
2022-11-24T09:13:23.833Z,3.63
2022-11-24T09:16:10.859Z,4.63
2022-11-24T09:19:00.731Z,6.13
2022-11-24T09:21:47.000Z,4.50
2022-11-24T09:24:33.345Z,3.53
2022-11-24T09:27:21.006Z,4.60
2022-11-24T09:30:08.424Z,6.10
2022-11-24T09:32:56.545Z,2.10
2022-11-24T09:35:42.958Z,3.80
2022-11-24T09:38:29.724Z,3.30
2022-11-24T09:41:22.705Z,3.00
2022-11-24T09:44:15.055Z,7.73
2022-11-24T09:47:05.410Z,4.30
2022-11-24T09:49:54.543Z,2.70
2022-11-24T09:52:41.919Z,4.60
2022-11-24T09:55:41.586Z,4.37
2022-11-24T09:58:40.001Z,4.63
2022-11-24T10:01:29.910Z,5.80
2022-11-24T10:04:19.564Z,4.90
2022-11-24T10:07:09.083Z,7.57
2022-11-24T10:10:00.795Z,4.60
2022-11-24T10:12:51.047Z,7.33
2022-11-24T10:15:42.612Z,10.47
2022-11-24T10:18:37.319Z,6.10
2022-11-24T10:21:38.460Z,6.73
2022-11-24T10:24:40.081Z,2.37
2022-11-24T10:27:28.349Z,8.10
2022-11-24T10:30:16.846Z,6.07
2022-11-24T10:33:07.406Z,3.77
2022-11-24T10:35:57.096Z,6.27
2022-11-24T10:38:45.391Z,4.57
2022-11-24T10:41:36.857Z,7.40
2022-11-24T10:44:23.354Z,3.67
2022-11-24T10:47:16.969Z,6.17
2022-11-24T10:50:06.483Z,3.23
2022-11-24T10:52:59.905Z,7.47
2022-11-24T10:55:59.731Z,6.30
2022-11-24T10:58:45.946Z,10.50
2022-11-24T11:01:34.022Z,4.90
2022-11-24T11:04:21.516Z,5.53
2022-11-24T11:07:16.568Z,6.67
2022-11-24T11:10:20.652Z,5.47
2022-11-24T11:13:21.482Z,8.07
2022-11-24T11:16:20.247Z,11.30
2022-11-24T11:19:26.014Z,8.03
2022-11-24T11:22:15.813Z,15.17
2022-11-24T11:25:08.063Z,9.10
2022-11-24T11:28:16.512Z,7.43
2022-11-24T11:31:22.230Z,7.47
2022-11-24T11:34:35.123Z,11.00
2022-11-24T11:37:22.254Z,6.93
2022-11-24T11:40:16.111Z,8.87
2022-11-24T11:43:05.917Z,15.30
2022-11-24T11:45:58.658Z,10.57
2022-11-24T11:48:46.887Z,7.23
2022-11-24T11:51:45.912Z,9.03
2022-11-24T11:54:39.405Z,11.20
2022-11-24T11:57:29.885Z,15.63
2022-11-24T12:00:19.411Z,10.77
2022-11-24T12:03:29.015Z,6.87
2022-11-24T12:06:21.778Z,6.70
2022-11-24T12:09:20.286Z,6.93
2022-11-24T12:12:14.309Z,5.50
2022-11-24T12:15:11.047Z,9.97
2022-11-24T12:18:06.374Z,5.47
2022-11-24T12:20:57.942Z,6.77
2022-11-24T12:23:49.663Z,5.57
2022-11-24T12:26:39.171Z,5.30
2022-11-24T12:29:36.128Z,6.00
2022-11-24T12:32:34.983Z,6.90
2022-11-24T12:35:25.280Z,5.70
2022-11-24T12:38:22.308Z,4.47
2022-11-24T12:44:36.606Z,3.13
2022-11-24T12:47:27.393Z,9.60
2022-11-24T12:50:16.631Z,6.83
2022-11-24T12:53:09.158Z,4.03
2022-11-24T12:55:55.876Z,4.87
2022-11-24T12:58:46.177Z,4.00
2022-11-24T13:01:37.412Z,6.37
2022-11-24T13:04:32.482Z,5.00
2022-11-24T13:07:21.687Z,3.73
2022-11-24T13:13:51.431Z,3.53
2022-11-24T13:17:13.489Z,2.83
2022-11-24T13:20:14.582Z,2.77
2022-11-24T13:23:04.799Z,6.67
2022-11-24T13:26:15.808Z,3.20
2022-11-24T13:29:18.370Z,1.70
2022-11-24T13:32:41.702Z,1.90
2022-11-24T13:35:30.989Z,3.80
2022-11-24T13:38:34.829Z,2.10
2022-11-24T13:41:36.424Z,2.00
2022-11-24T13:44:25.660Z,2.60
2022-11-24T13:47:27.946Z,1.70
2022-11-24T13:50:16.457Z,2.47
2022-11-24T13:53:10.430Z,2.33
2022-11-24T13:55:59.319Z,2.70
2022-11-24T13:58:46.548Z,2.20
2022-11-24T14:01:33.861Z,2.20
2022-11-24T14:04:31.538Z,2.97
2022-11-24T14:07:18.958Z,2.27
2022-11-24T14:10:14.736Z,3.20
2022-11-24T14:13:21.962Z,5.53
2022-11-24T14:16:15.617Z,3.27
2022-11-24T14:19:10.083Z,2.27
2022-11-24T14:21:56.717Z,3.27
2022-11-24T14:24:45.479Z,3.50
2022-11-24T14:27:35.294Z,2.37
2022-11-24T14:30:22.647Z,3.23
2022-11-24T14:33:12.301Z,3.20
2022-11-24T14:35:58.470Z,5.33
2022-11-24T14:38:44.893Z,2.57
2022-11-24T14:41:31.198Z,4.50
2022-11-24T14:44:21.697Z,3.37
2022-11-24T14:47:09.124Z,4.00
2022-11-24T14:49:55.737Z,8.07
2022-11-24T14:52:46.613Z,4.37
2022-11-24T14:55:35.327Z,4.73
2022-11-24T14:58:22.194Z,4.47
2022-11-24T15:01:11.091Z,4.47
2022-11-24T15:04:17.890Z,4.83
2022-11-24T15:07:15.148Z,3.90
2022-11-24T15:10:02.415Z,4.73
2022-11-24T15:12:53.451Z,4.27
2022-11-24T15:15:40.193Z,5.20
2022-11-24T15:18:30.266Z,4.17
2022-11-24T15:21:19.567Z,5.13
2022-11-24T15:24:07.974Z,5.13
2022-11-24T15:26:59.843Z,9.70
2022-11-24T15:29:46.080Z,6.10
2022-11-24T15:32:32.442Z,5.87
2022-11-24T15:35:20.137Z,6.10
2022-11-24T15:38:06.376Z,7.63
2022-11-24T15:40:53.648Z,8.33
2022-11-24T15:43:40.504Z,4.20
2022-11-24T15:46:27.880Z,5.63
2022-11-24T15:49:14.521Z,6.27
2022-11-24T15:52:02.238Z,7.03
2022-11-24T15:54:49.028Z,5.80
2022-11-24T15:57:35.428Z,4.23
2022-11-24T16:00:22.414Z,5.83
2022-11-24T16:03:38.737Z,4.53
2022-11-24T16:06:23.374Z,5.80
2022-11-24T16:09:15.687Z,5.47
2022-11-24T16:12:03.856Z,6.43
2022-11-24T16:14:50.509Z,4.83
2022-11-24T16:17:36.908Z,6.17
2022-11-24T16:20:23.460Z,5.13
2022-11-24T16:23:09.604Z,7.00
2022-11-24T16:25:57.238Z,6.97
2022-11-24T16:28:45.299Z,4.50
2022-11-24T16:31:31.477Z,6.77
2022-11-24T16:34:17.722Z,6.30
2022-11-24T16:37:04.228Z,6.80
2022-11-24T16:39:50.913Z,6.13
2022-11-24T16:42:38.296Z,7.63
2022-11-24T16:45:24.967Z,5.20
2022-11-24T16:48:11.276Z,4.87
2022-11-24T16:50:57.584Z,6.30
2022-11-24T16:53:44.887Z,6.80
2022-11-24T16:56:32.042Z,6.70
2022-11-24T16:59:20.235Z,8.10
2022-11-24T17:02:07.321Z,6.50
2022-11-24T17:04:53.523Z,7.07
2022-11-24T17:07:39.801Z,7.90
2022-11-24T17:10:26.474Z,9.27
2022-11-24T17:13:12.876Z,8.23
2022-11-24T17:16:03.558Z,5.90
2022-11-24T17:18:50.434Z,7.83
2022-11-24T17:21:36.828Z,4.70
2022-11-24T17:24:23.314Z,8.77
2022-11-24T17:27:09.931Z,9.80
2022-11-24T17:29:56.429Z,6.17
2022-11-24T17:32:44.032Z,10.00
2022-11-24T17:35:30.197Z,9.40
2022-11-24T17:38:16.521Z,6.67
2022-11-24T17:41:02.828Z,7.47
2022-11-24T17:43:49.648Z,9.00
2022-11-24T17:46:37.188Z,7.70
2022-11-24T17:49:25.114Z,5.57
2022-11-24T17:52:12.784Z,6.70
2022-11-24T17:54:59.796Z,5.30
2022-11-24T17:57:46.152Z,4.33
2022-11-24T18:00:32.638Z,4.67
2022-11-24T18:03:18.807Z,5.23
2022-11-24T18:06:07.716Z,16.33
2022-11-24T18:08:55.155Z,12.13
2022-11-24T18:11:41.651Z,15.27
2022-11-24T18:14:27.983Z,11.27
2022-11-24T18:17:14.573Z,9.10
2022-11-24T18:20:00.721Z,11.43
2022-11-24T18:25:55.154Z,16.10
2022-11-24T18:28:41.587Z,13.30
2022-11-24T18:31:29.426Z,12.97
2022-11-24T18:34:16.203Z,14.60
2022-11-24T18:37:02.514Z,13.90
2022-11-24T18:39:50.550Z,7.73
2022-11-24T18:42:37.296Z,9.20
2022-11-24T18:45:23.815Z,15.90
2022-11-24T18:48:10.284Z,15.30
2022-11-24T18:50:57.391Z,13.40
2022-11-24T18:53:46.941Z,10.17
2022-11-24T18:56:34.459Z,10.57
2022-11-24T18:59:21.025Z,6.60
2022-11-24T19:02:07.201Z,4.83
2022-11-24T19:04:53.715Z,8.27
2022-11-24T19:07:40.190Z,7.27
2022-11-24T19:10:26.768Z,5.97
2022-11-24T19:13:14.834Z,6.23
2022-11-24T19:16:01.447Z,5.03
2022-11-24T19:18:53.603Z,6.00
2022-11-24T19:21:41.890Z,4.40
2022-11-24T19:24:28.293Z,6.03
2022-11-24T19:27:15.632Z,6.80
2022-11-24T19:30:03.104Z,7.33
2022-11-24T19:32:49.602Z,8.23
2022-11-24T19:35:36.357Z,9.00
2022-11-24T19:38:25.634Z,13.50
2022-11-24T19:41:16.183Z,5.43
2022-11-24T19:44:02.796Z,9.00
2022-11-24T19:46:51.141Z,7.43
2022-11-24T19:49:37.641Z,15.73
2022-11-24T19:52:24.232Z,12.13
2022-11-24T19:55:10.630Z,11.70
2022-11-24T19:57:56.909Z,9.73
2022-11-24T20:00:43.247Z,8.10
2022-11-24T20:03:30.830Z,11.60
2022-11-24T20:06:17.463Z,10.93
2022-11-24T20:09:04.842Z,6.87
2022-11-24T20:11:51.474Z,8.50
2022-11-24T20:14:37.796Z,7.80
2022-11-24T20:17:23.885Z,7.57
2022-11-24T20:20:11.887Z,7.90
2022-11-24T20:22:58.255Z,11.53
2022-11-24T20:25:44.344Z,8.10
2022-11-24T20:28:30.714Z,11.23
2022-11-24T20:31:19.665Z,14.63
2022-11-24T20:34:06.808Z,18.60
2022-11-24T20:36:54.219Z,12.07
2022-11-24T20:39:40.820Z,8.57
2022-11-24T20:42:27.251Z,6.40
2022-11-24T20:45:13.674Z,8.93
2022-11-24T20:48:00.212Z,6.80
2022-11-24T20:50:51.145Z,8.60
2022-11-24T20:53:39.642Z,7.93
2022-11-24T20:56:27.445Z,9.93
2022-11-24T20:59:14.471Z,9.00
2022-11-24T21:02:00.818Z,10.67
2022-11-24T21:04:49.190Z,11.77
2022-11-24T21:07:35.575Z,12.60
2022-11-24T21:10:23.408Z,10.47
2022-11-24T21:13:09.835Z,10.27
2022-11-24T21:15:56.430Z,13.70
2022-11-24T21:18:43.604Z,11.43
2022-11-24T21:21:34.166Z,9.17
2022-11-24T21:24:21.750Z,7.30
2022-11-24T21:27:09.402Z,7.03
2022-11-24T21:29:55.816Z,7.70
2022-11-24T21:32:42.044Z,11.23
2022-11-24T21:35:28.510Z,7.63
2022-11-24T21:38:15.227Z,7.00
2022-11-24T21:41:02.338Z,5.27
2022-11-24T21:43:50.092Z,4.20
2022-11-24T21:46:43.590Z,4.60
2022-11-24T21:49:32.068Z,6.43
2022-11-24T21:52:18.661Z,3.23
2022-11-24T21:55:05.009Z,4.87
2022-11-24T21:57:51.418Z,3.70
2022-11-24T22:00:39.051Z,3.87
2022-11-24T22:03:25.622Z,4.27
2022-11-24T22:06:12.212Z,4.50
2022-11-24T22:08:58.416Z,4.10
2022-11-24T22:11:45.142Z,6.27
2022-11-24T22:14:36.107Z,6.27
2022-11-24T22:17:26.856Z,4.40
2022-11-24T22:20:13.040Z,4.80
2022-11-24T22:22:59.425Z,4.93
2022-11-24T22:25:45.853Z,4.67
2022-11-24T22:28:33.253Z,5.80
2022-11-24T22:31:20.608Z,5.90
2022-11-24T22:34:08.654Z,2.53
2022-11-24T22:36:54.987Z,2.40
2022-11-24T22:39:41.132Z,2.23
2022-11-24T22:42:27.503Z,4.63
2022-11-24T22:45:13.870Z,3.67
2022-11-24T22:48:00.020Z,2.97
2022-11-24T22:50:47.760Z,2.03
2022-11-24T22:53:34.421Z,2.57
2022-11-24T22:56:21.562Z,3.03
2022-11-24T22:59:07.918Z,2.63
2022-11-24T23:01:54.472Z,2.33
2022-11-24T23:04:40.920Z,3.07
2022-11-24T23:07:28.923Z,1.60
2022-11-24T23:10:15.246Z,2.53
2022-11-24T23:13:01.850Z,1.60
2022-11-24T23:15:47.916Z,2.60
2022-11-24T23:18:34.236Z,2.03
2022-11-24T23:21:21.711Z,1.70
2022-11-24T23:24:11.036Z,2.27
2022-11-24T23:26:57.191Z,2.17
2022-11-24T23:29:43.562Z,3.07
2022-11-24T23:32:29.907Z,1.50
2022-11-24T23:35:15.989Z,1.40
2022-11-24T23:38:09.279Z,1.50
2022-11-24T23:40:57.882Z,1.60
2022-11-24T23:43:44.402Z,1.63
2022-11-24T23:46:30.826Z,1.10
2022-11-24T23:49:17.133Z,2.23
2022-11-24T23:52:03.608Z,1.37
2022-11-24T23:54:49.979Z,1.60
2022-11-24T23:57:37.634Z,1.37
